createdAt,value
2022-08-25T00:00:44.965Z,100465.94
2022-08-25T00:01:54.607Z,100461.52
2022-08-25T00:02:59.390Z,100461.13
2022-08-25T00:04:07.378Z,100455.03
2022-08-25T00:05:11.618Z,100457.95
2022-08-25T00:06:16.855Z,100457.95
2022-08-25T00:07:20.813Z,100459.44
2022-08-25T00:08:26.345Z,100462.36
2022-08-25T00:09:31.846Z,100462.36
2022-08-25T00:10:38.254Z,100464.25
2022-08-25T00:11:45.885Z,100460.89
2022-08-25T00:12:49.939Z,100467.37
2022-08-25T00:13:56.967Z,100467.37
2022-08-25T00:15:01.082Z,100465.08
2022-08-25T00:16:05.218Z,100468.86
2022-08-25T00:17:09.481Z,100470.95
2022-08-25T00:18:20.064Z,100467.39
2022-08-25T00:19:22.222Z,100464.86
2022-08-25T00:20:28.940Z,100479.33
2022-08-25T00:21:33.687Z,100463.38
2022-08-25T00:22:38.479Z,100460.46
2022-08-25T00:23:42.791Z,100457.31
2022-08-25T00:24:46.888Z,100457.31
2022-08-25T00:25:51.050Z,100462.55
2022-08-25T00:26:57.584Z,100461.49
2022-08-25T00:28:06.419Z,100453.73
2022-08-25T00:29:07.606Z,100454.15
2022-08-25T00:30:12.556Z,100454.15
2022-08-25T00:31:20.252Z,100457.52
2022-08-25T00:32:24.428Z,100458.34
2022-08-25T00:33:29.730Z,100459.60
2022-08-25T00:34:38.066Z,100459.16
2022-08-25T00:35:43.278Z,100467.97
2022-08-25T00:36:47.737Z,100467.97
2022-08-25T00:37:51.763Z,100463.36
2022-08-25T00:38:56.353Z,100455.17
2022-08-25T00:40:00.442Z,100455.17
2022-08-25T00:41:04.549Z,100466.69
2022-08-25T00:42:16.102Z,100461.05
2022-08-25T00:43:17.708Z,100468.39
2022-08-25T00:44:22.002Z,100468.39
2022-08-25T00:45:26.527Z,100465.22
2022-08-25T00:46:34.046Z,100468.58
2022-08-25T00:47:38.272Z,100462.48
2022-08-25T00:48:44.815Z,100464.98
2022-08-25T00:49:51.802Z,100464.98
2022-08-25T00:50:56.565Z,100462.86
2022-08-25T00:52:06.613Z,100462.86
2022-08-25T00:53:10.665Z,100466.22
2022-08-25T00:54:18.015Z,100470.39
2022-08-25T00:55:25.354Z,100462.44
2022-08-25T00:56:30.351Z,100459.30
2022-08-25T00:57:37.321Z,100459.03
2022-08-25T00:58:42.695Z,100467.39
2022-08-25T00:59:47.025Z,100464.89
2022-08-25T01:00:53.516Z,100459.82
2022-08-25T01:02:00.000Z,100460.05
2022-08-25T01:03:04.727Z,100458.14
2022-08-25T01:04:08.879Z,100456.85
2022-08-25T01:05:13.051Z,100454.13
2022-08-25T01:06:17.878Z,100450.98
2022-08-25T01:07:22.385Z,100458.92
2022-08-25T01:08:29.390Z,100458.31
2022-08-25T01:09:36.999Z,100457.67
2022-08-25T01:10:43.834Z,100454.73
2022-08-25T01:11:48.923Z,100454.30
2022-08-25T01:12:55.707Z,100454.30
2022-08-25T01:14:01.683Z,100455.36
2022-08-25T01:15:08.907Z,100462.23
2022-08-25T01:16:15.405Z,100463.06
2022-08-25T01:17:20.078Z,100464.12
2022-08-25T01:18:26.708Z,100460.97
2022-08-25T01:19:32.103Z,100460.97
2022-08-25T01:20:37.031Z,100459.67
2022-08-25T01:21:44.039Z,100459.67
2022-08-25T01:22:54.978Z,100453.80
2022-08-25T01:23:57.459Z,100453.80
2022-08-25T01:25:04.642Z,100455.05
2022-08-25T01:26:16.182Z,100460.08
2022-08-25T01:27:20.365Z,100460.08
2022-08-25T01:28:24.403Z,100467.83
2022-08-25T01:29:29.515Z,100467.83
2022-08-25T01:30:37.509Z,100459.19
2022-08-25T01:31:41.793Z,100459.19
2022-08-25T01:32:46.241Z,100453.75
2022-08-25T01:33:50.338Z,100457.95
2022-08-25T01:34:54.385Z,100460.25
2022-08-25T01:35:58.433Z,100460.25
2022-08-25T01:37:04.885Z,100461.30
2022-08-25T01:38:10.646Z,100456.63
2022-08-25T01:39:15.146Z,100452.02
2022-08-25T01:40:19.895Z,100449.30
2022-08-25T01:41:35.819Z,100449.52
2022-08-25T01:43:00.855Z,100454.56
2022-08-25T01:44:05.639Z,100460.41
2022-08-25T01:45:11.258Z,100460.41
2022-08-25T01:46:15.949Z,100454.72
2022-08-25T01:47:20.625Z,100454.72
2022-08-25T01:48:24.746Z,100457.26
2022-08-25T01:49:29.200Z,100459.11
2022-08-25T01:50:35.026Z,100465.42
2022-08-25T01:51:42.010Z,100454.91
2022-08-25T01:52:58.015Z,100463.47
2022-08-25T01:54:02.169Z,100456.95
2022-08-25T01:55:06.847Z,100457.41
2022-08-25T01:56:15.380Z,100457.41
2022-08-25T01:57:20.756Z,100454.44
2022-08-25T01:58:27.452Z,100456.11
2022-08-25T01:59:34.217Z,100459.48
2022-08-25T02:00:39.622Z,100459.48
2022-08-25T02:01:43.867Z,100453.98
2022-08-25T02:02:52.244Z,100459.42
2022-08-25T02:03:56.004Z,100458.59
2022-08-25T02:05:01.554Z,100456.08
2022-08-25T02:06:09.997Z,100456.08
2022-08-25T02:07:14.245Z,100456.45
2022-08-25T02:08:18.633Z,100456.45
2022-08-25T02:09:25.851Z,100453.36
2022-08-25T02:10:29.103Z,100453.36
2022-08-25T02:11:33.586Z,100456.45
2022-08-25T02:12:37.975Z,100453.95
2022-08-25T02:13:43.262Z,100453.95
2022-08-25T02:14:47.242Z,100462.11
2022-08-25T02:15:54.193Z,100457.66
2022-08-25T02:16:58.569Z,100458.27
2022-08-25T02:18:03.097Z,100458.27
2022-08-25T02:19:11.549Z,100459.29
2022-08-25T02:20:15.973Z,100458.27
2022-08-25T02:21:21.627Z,100455.55
2022-08-25T02:22:25.649Z,100456.97
2022-08-25T02:23:29.773Z,100456.97
2022-08-25T02:24:33.943Z,100460.92
2022-08-25T02:25:39.837Z,100461.97
2022-08-25T02:26:44.359Z,100458.20
2022-08-25T02:27:48.309Z,100451.75
2022-08-25T02:28:53.513Z,100453.81
2022-08-25T02:29:59.001Z,100459.66
2022-08-25T02:31:04.068Z,100459.44
2022-08-25T02:32:11.043Z,100458.56
2022-08-25T02:33:15.071Z,100458.56
2022-08-25T02:34:22.135Z,100461.28
2022-08-25T02:35:26.208Z,100462.52
2022-08-25T02:36:30.738Z,100453.75
2022-08-25T02:37:35.625Z,100450.41
2022-08-25T02:38:40.520Z,100450.41
2022-08-25T02:39:44.603Z,100461.03
2022-08-25T02:40:48.841Z,100457.00
2022-08-25T02:41:52.934Z,100459.72
2022-08-25T02:42:56.957Z,100460.13
2022-08-25T02:44:03.156Z,100454.03
2022-08-25T02:45:07.769Z,100466.61
2022-08-25T02:46:13.891Z,100463.23
2022-08-25T02:47:22.672Z,100463.23
2022-08-25T02:48:26.729Z,100455.47
2022-08-25T02:49:30.826Z,100456.31
2022-08-25T02:50:34.791Z,100455.22
2022-08-25T02:51:38.775Z,100455.39
2022-08-25T02:52:42.836Z,100459.16
2022-08-25T02:53:46.794Z,100458.98
2022-08-25T02:54:51.328Z,100456.45
2022-08-25T02:55:55.947Z,100457.49
2022-08-25T02:57:00.166Z,100457.49
2022-08-25T02:58:04.390Z,100450.56
2022-08-25T02:59:08.565Z,100446.80
2022-08-25T03:00:15.371Z,100446.80
2022-08-25T03:01:19.531Z,100454.30
2022-08-25T03:02:24.027Z,100451.41
2022-08-25T03:03:27.977Z,100448.69
2022-08-25T03:04:32.136Z,100451.41
2022-08-25T03:05:36.256Z,100455.39
2022-08-25T03:06:40.355Z,100462.72
2022-08-25T03:07:45.869Z,100462.72
2022-08-25T03:08:50.060Z,100455.88
2022-08-25T03:09:54.164Z,100467.40
2022-08-25T03:10:58.285Z,100459.03
2022-08-25T03:12:02.344Z,100472.44
2022-08-25T03:13:06.525Z,100469.33
2022-08-25T03:14:10.652Z,100475.86
2022-08-25T03:15:16.677Z,100480.95
2022-08-25T03:16:22.986Z,100470.97
2022-08-25T03:17:28.658Z,100470.83
2022-08-25T03:18:37.385Z,99947.59
2022-08-25T03:19:40.450Z,100462.14
2022-08-25T03:20:44.926Z,100462.80
2022-08-25T03:21:48.986Z,100461.98
2022-08-25T03:22:53.431Z,100465.77
2022-08-25T03:23:59.466Z,100469.62
2022-08-25T03:25:04.915Z,100470.48
2022-08-25T03:26:09.716Z,100470.48
2022-08-25T03:27:13.933Z,100477.37
2022-08-25T03:28:18.468Z,100477.37
2022-08-25T03:29:26.498Z,100466.09
2022-08-25T03:30:31.417Z,100465.16
2022-08-25T03:31:36.094Z,100465.16
2022-08-25T03:32:40.278Z,100459.16
2022-08-25T03:33:44.311Z,100464.61
2022-08-25T03:34:48.280Z,100476.38
2022-08-25T03:35:54.121Z,100469.27
2022-08-25T03:36:59.013Z,100469.27
2022-08-25T03:38:03.155Z,100485.03
2022-08-25T03:39:07.140Z,100485.03
2022-08-25T03:40:16.405Z,100480.23
2022-08-25T03:41:23.530Z,100469.73
2022-08-25T03:42:29.391Z,100470.55
2022-08-25T03:43:33.403Z,100473.45
2022-08-25T03:44:37.401Z,100470.88
2022-08-25T03:45:44.003Z,100470.88
2022-08-25T03:46:50.586Z,100471.27
2022-08-25T03:47:54.733Z,100470.13
2022-08-25T03:49:00.220Z,100473.24
2022-08-25T03:50:14.000Z,100473.24
2022-08-25T03:51:33.735Z,100471.40
2022-08-25T04:17:05.692Z,100466.70
2022-08-25T04:30:01.003Z,100465.05
2022-08-25T04:31:12.795Z,100468.36
2022-08-25T04:32:16.844Z,100460.79
2022-08-25T04:33:20.917Z,100460.79
2022-08-25T04:34:29.360Z,100466.40
2022-08-25T04:35:32.490Z,100458.72
2022-08-25T04:36:36.840Z,100458.72
2022-08-25T04:37:41.014Z,100463.94
2022-08-25T04:38:46.532Z,100463.94
2022-08-25T04:39:50.536Z,100297.94
2022-08-25T04:41:00.411Z,100453.23
2022-08-25T04:42:06.076Z,100464.77
2022-08-25T04:43:10.303Z,100464.77
2022-08-25T04:44:14.340Z,100457.34
2022-08-25T04:45:18.453Z,100454.67
2022-08-25T04:46:25.774Z,100458.45
2022-08-25T04:47:29.995Z,100460.23
2022-08-25T04:48:34.919Z,100457.63
2022-08-25T04:49:38.952Z,100455.34
2022-08-25T04:50:43.064Z,100455.34
2022-08-25T04:51:47.845Z,100455.39
2022-08-25T04:52:51.880Z,100455.39
2022-08-25T04:54:02.313Z,100452.73
2022-08-25T04:55:06.077Z,100454.23
2022-08-25T04:56:13.715Z,100451.39
2022-08-25T04:57:19.116Z,100451.39
2022-08-25T04:58:23.954Z,100443.45
2022-08-25T04:59:30.329Z,100443.45
2022-08-25T05:00:36.658Z,100450.45
2022-08-25T05:01:42.322Z,100441.23
2022-08-25T05:02:46.339Z,100446.00
2022-08-25T05:03:55.917Z,100435.06
2022-08-25T05:05:01.217Z,100449.58
2022-08-25T05:06:06.258Z,100438.55
2022-08-25T05:07:10.342Z,100438.55
2022-08-25T05:08:14.322Z,100435.41
2022-08-25T05:09:19.822Z,100439.89
2022-08-25T05:10:24.890Z,100437.37
2022-08-25T05:11:30.998Z,100435.52
2022-08-25T05:12:36.727Z,100440.55
2022-08-25T05:13:42.446Z,100440.55
2022-08-25T05:14:46.572Z,100438.38
2022-08-25T05:15:55.782Z,100438.38
2022-08-25T05:17:00.314Z,100439.28
2022-08-25T05:18:05.546Z,100367.23
2022-08-25T05:19:09.883Z,100438.21
2022-08-25T05:20:14.564Z,100435.18
2022-08-25T05:21:21.491Z,100435.18
2022-08-25T05:22:25.638Z,100431.28
2022-08-25T05:23:29.845Z,100427.25
2022-08-25T05:24:33.863Z,100425.35
2022-08-25T05:25:38.216Z,100422.94
2022-08-25T05:26:42.646Z,100430.18
2022-08-25T05:27:46.628Z,100430.18
2022-08-25T05:28:56.377Z,100431.14
2022-08-25T05:29:59.490Z,100431.14
2022-08-25T05:31:05.574Z,100429.11
2022-08-25T05:32:10.305Z,100429.11
2022-08-25T05:33:17.015Z,100425.84
2022-08-25T05:34:21.316Z,100429.15
2022-08-25T05:35:25.380Z,100433.31
2022-08-25T05:36:29.950Z,100433.31
2022-08-25T05:37:34.019Z,100444.18
2022-08-25T05:38:38.739Z,100438.01
2022-08-25T05:39:43.980Z,100433.66
2022-08-25T05:40:48.232Z,100433.45
2022-08-25T05:41:52.254Z,100434.28
2022-08-25T05:42:56.333Z,100434.28
2022-08-25T05:44:00.381Z,100437.83
2022-08-25T05:45:06.113Z,100433.20
2022-08-25T05:46:11.467Z,100432.75
2022-08-25T05:47:17.753Z,100436.86
2022-08-25T05:48:21.648Z,100436.86
2022-08-25T05:49:25.706Z,100439.75
2022-08-25T05:50:30.234Z,100439.75
2022-08-25T05:51:34.320Z,100434.80
2022-08-25T05:52:38.561Z,100432.94
2022-08-25T05:53:45.006Z,100433.73
2022-08-25T05:54:49.143Z,100428.77
2022-08-25T05:55:55.779Z,100428.77
2022-08-25T05:57:00.098Z,100437.94
2022-08-25T05:58:04.174Z,100437.94
2022-08-25T05:59:09.661Z,100429.73
2022-08-25T06:00:16.705Z,100425.39
2022-08-25T06:01:26.815Z,100430.63
2022-08-25T06:02:32.700Z,100426.66
2022-08-25T06:03:40.706Z,100430.77
2022-08-25T06:04:44.994Z,100430.77
2022-08-25T06:05:50.433Z,100437.81
2022-08-25T06:06:54.563Z,100437.81
2022-08-25T06:07:58.987Z,100439.66
2022-08-25T06:09:04.047Z,100439.66
2022-08-25T06:10:10.282Z,100433.53
2022-08-25T06:11:15.303Z,100441.05
2022-08-25T06:12:19.461Z,100441.05
2022-08-25T06:13:28.728Z,100442.17
2022-08-25T06:14:29.250Z,100442.17
2022-08-25T06:15:33.367Z,100441.16
2022-08-25T06:16:39.957Z,100442.03
2022-08-25T06:17:44.137Z,100434.09
2022-08-25T06:18:48.135Z,100443.20
2022-08-25T06:19:53.173Z,100443.20
2022-08-25T06:20:57.254Z,100436.32
2022-08-25T06:22:01.341Z,100436.32
2022-08-25T06:23:05.697Z,100439.76
2022-08-25T06:24:15.353Z,100445.81
2022-08-25T06:25:19.531Z,100445.81
2022-08-25T06:26:25.354Z,100439.61
2022-08-25T06:27:29.336Z,100439.61
2022-08-25T06:28:33.377Z,100444.61
2022-08-25T06:29:37.994Z,100435.50
2022-08-25T06:30:42.553Z,100439.61
2022-08-25T06:31:47.006Z,100439.61
2022-08-25T06:32:51.104Z,100431.38
2022-08-25T06:33:55.191Z,100335.94
2022-08-25T06:34:59.527Z,100335.94
2022-08-25T06:36:03.946Z,100432.17
2022-08-25T06:37:08.080Z,100427.84
2022-08-25T06:38:14.968Z,100427.84
2022-08-25T06:39:19.148Z,100433.95
2022-08-25T06:40:23.475Z,100431.00
2022-08-25T06:41:36.557Z,100434.05
2022-08-25T06:42:36.394Z,100435.74
2022-08-25T06:43:48.069Z,100441.30
2022-08-25T06:44:47.754Z,100426.08
2022-08-25T06:45:51.767Z,100432.18
2022-08-25T06:46:56.057Z,100436.98
2022-08-25T06:48:00.164Z,100436.98
2022-08-25T06:49:06.103Z,100436.47
2022-08-25T06:50:10.887Z,100435.41
2022-08-25T06:51:17.745Z,100435.41
2022-08-25T06:52:22.045Z,100430.75
2022-08-25T06:53:27.712Z,100432.41
2022-08-25T06:54:31.711Z,100434.34
2022-08-25T06:55:37.129Z,100441.55
2022-08-25T06:56:42.681Z,100441.55
2022-08-25T06:57:46.718Z,100435.47
2022-08-25T06:58:50.748Z,100438.24
2022-08-25T06:59:54.735Z,100435.77
2022-08-25T07:01:15.750Z,100431.34
2022-08-25T07:02:16.797Z,100431.34
2022-08-25T07:04:26.869Z,100429.98
2022-08-25T07:05:43.448Z,100434.74
2022-08-25T07:06:38.287Z,100434.74
2022-08-25T07:07:44.142Z,100434.60
2022-08-25T07:08:49.582Z,100434.60
2022-08-25T07:09:53.612Z,100431.58
2022-08-25T07:10:58.732Z,100436.02
2022-08-25T07:12:03.341Z,100290.16
2022-08-25T07:13:07.336Z,100437.16
2022-08-25T07:14:13.847Z,100437.16
2022-08-25T07:15:20.892Z,100430.53
2022-08-25T07:16:29.891Z,100433.86
2022-08-25T07:17:30.416Z,100428.88
2022-08-25T07:18:35.625Z,100431.64
2022-08-25T07:19:40.907Z,100425.54
2022-08-25T07:20:45.396Z,100425.54
2022-08-25T07:21:52.502Z,100428.84
2022-08-25T07:22:56.535Z,100426.05
2022-08-25T07:24:02.417Z,100416.08
2022-08-25T07:25:10.072Z,100416.08
2022-08-25T07:26:36.268Z,100425.50
2022-08-25T07:27:22.169Z,100421.61
2022-08-25T07:28:26.207Z,100421.09
2022-08-25T07:29:32.882Z,100421.09
2022-08-25T07:30:37.412Z,100419.22
2022-08-25T07:31:42.014Z,100426.71
2022-08-25T07:32:46.215Z,100426.71
2022-08-25T07:33:50.265Z,100419.52
2022-08-25T07:34:55.022Z,100420.91
2022-08-25T07:35:59.230Z,100420.91
2022-08-25T07:38:12.983Z,100412.91
2022-08-25T07:39:16.230Z,100408.78
2022-08-25T07:40:26.500Z,100408.78
2022-08-25T07:41:31.330Z,100401.84
2022-08-25T07:42:37.679Z,100401.84
2022-08-25T07:43:41.686Z,100411.83
2022-08-25T07:44:47.248Z,100411.83
2022-08-25T07:45:51.199Z,100403.53
2022-08-25T07:46:56.467Z,100403.53
2022-08-25T07:48:11.991Z,100406.30
2022-08-25T07:49:23.200Z,100406.00
2022-08-25T07:50:27.339Z,100399.09
2022-08-25T07:51:31.395Z,100393.00
2022-08-25T07:52:36.279Z,100399.08
2022-08-25T07:53:43.371Z,100399.08
2022-08-25T07:54:47.405Z,100398.83
2022-08-25T07:55:51.586Z,100401.04
2022-08-25T07:56:57.405Z,100401.04
2022-08-25T07:58:01.415Z,100395.53
2022-08-25T07:59:05.681Z,100395.53
2022-08-25T08:00:13.972Z,100393.28
2022-08-25T08:01:21.028Z,100384.45
2022-08-25T08:02:25.241Z,100384.45
2022-08-25T08:03:45.133Z,100395.77
2022-08-25T08:04:37.455Z,100395.77
2022-08-25T08:05:41.889Z,100386.92
2022-08-25T08:06:46.113Z,100392.20
2022-08-25T08:07:50.172Z,100392.20
2022-08-25T08:08:59.165Z,100394.11
2022-08-25T08:10:36.996Z,100387.48
2022-08-25T08:11:27.462Z,100372.49
2022-08-25T08:12:31.767Z,100372.49
2022-08-25T08:13:48.948Z,100380.81
2022-08-25T08:14:54.146Z,100377.47
2022-08-25T08:15:58.186Z,100375.83
2022-08-25T08:17:09.957Z,100375.83
2022-08-25T08:18:14.068Z,100373.63
2022-08-25T08:19:18.382Z,100373.63
2022-08-25T08:20:24.695Z,100371.36
2022-08-25T08:21:31.865Z,100371.66
2022-08-25T08:22:39.121Z,100371.66
2022-08-25T08:23:44.968Z,100378.28
2022-08-25T08:24:56.154Z,100368.84
2022-08-25T08:25:57.836Z,100366.36
2022-08-25T08:27:01.811Z,100366.36
2022-08-25T08:28:07.095Z,100363.02
2022-08-25T08:29:11.551Z,100360.27
2022-08-25T08:30:18.159Z,100368.28
2022-08-25T08:31:26.515Z,100364.67
2022-08-25T08:32:53.020Z,100356.09
2022-08-25T08:33:40.657Z,100344.14
2022-08-25T08:34:43.858Z,100344.14
2022-08-25T08:35:48.465Z,100344.14
2022-08-25T08:36:52.999Z,100346.64
2022-08-25T08:37:57.274Z,100351.34
2022-08-25T08:39:01.331Z,100360.17
2022-08-25T08:40:08.694Z,100360.17
2022-08-25T08:42:07.192Z,100347.41
2022-08-25T08:42:56.000Z,100353.02
2022-08-25T08:44:07.222Z,100347.45
2022-08-25T08:45:29.194Z,100347.44
2022-08-25T08:46:36.330Z,100344.66
2022-08-25T08:47:44.789Z,100344.66
2022-08-25T08:48:54.361Z,100350.20
2022-08-25T08:50:10.160Z,100340.16
2022-08-25T08:51:25.014Z,100340.16
2022-08-25T08:52:48.789Z,100341.55
2022-08-25T08:53:58.553Z,100344.05
2022-08-25T08:55:08.984Z,100349.58
2022-08-25T08:56:19.652Z,100340.67
2022-08-25T08:57:26.022Z,100338.43
2022-08-25T08:58:41.842Z,100338.43
2022-08-25T08:59:58.328Z,100343.92
2022-08-25T09:01:02.506Z,100348.41
2022-08-25T09:02:13.678Z,100348.41
2022-08-25T09:03:39.522Z,100339.23
2022-08-25T09:04:53.136Z,100332.83
2022-08-25T09:05:59.807Z,100352.01
2022-08-25T09:07:06.943Z,100352.01
2022-08-25T09:08:20.459Z,100342.00
2022-08-25T09:09:31.029Z,100336.16
2022-08-25T09:10:57.645Z,100341.70
2022-08-25T09:12:07.540Z,100343.41
2022-08-25T09:13:18.213Z,100328.98
2022-08-25T09:14:43.099Z,100356.48
2022-08-25T09:16:02.161Z,100331.22
2022-08-25T09:17:23.838Z,100331.22
2022-08-25T09:18:50.924Z,100341.50
2022-08-25T09:20:02.563Z,100341.50
2022-08-25T09:21:12.589Z,100332.59
2022-08-25T09:22:37.675Z,100316.75
2022-08-25T09:23:52.211Z,100323.16
2022-08-25T09:25:48.684Z,100338.67
2022-08-25T09:27:05.860Z,100332.83
2022-08-25T09:28:25.430Z,100332.83
2022-08-25T09:29:32.428Z,100322.60
2022-08-25T09:31:00.446Z,100313.12
2022-08-25T09:32:07.585Z,100313.12
2022-08-25T09:33:14.418Z,100315.63
2022-08-25T09:34:24.390Z,100320.02
2022-08-25T09:35:32.266Z,100320.02
2022-08-25T09:36:38.918Z,100168.97
2022-08-25T09:37:42.918Z,100304.70
2022-08-25T09:38:47.110Z,100338.33
2022-08-25T09:39:51.231Z,100316.36
2022-08-25T09:40:58.254Z,100316.36
2022-08-25T09:42:05.885Z,100332.19
2022-08-25T09:43:35.324Z,100315.53
2022-08-25T09:44:44.719Z,100320.51
2022-08-25T09:46:01.919Z,100320.51
2022-08-25T09:47:20.681Z,100304.95
2022-08-25T09:48:35.565Z,100294.42
2022-08-25T09:49:41.614Z,100294.42
2022-08-25T09:50:46.798Z,100306.59
2022-08-25T09:51:52.755Z,100306.59
2022-08-25T09:52:58.403Z,100303.30
2022-08-25T09:54:18.476Z,100310.50
2022-08-25T09:55:38.820Z,100300.21
2022-08-25T09:56:56.149Z,100296.58
2022-08-25T09:58:00.316Z,100302.95
2022-08-25T09:59:34.579Z,100299.32
2022-08-25T10:00:34.266Z,100299.32
2022-08-25T10:01:41.371Z,100301.72
2022-08-25T10:03:06.069Z,100292.25
2022-08-25T10:04:19.027Z,100292.25
2022-08-25T10:05:24.116Z,100293.92
2022-08-25T10:06:35.394Z,100288.02
2022-08-25T10:07:47.404Z,100288.02
2022-08-25T10:08:51.063Z,100318.89
2022-08-25T10:10:01.230Z,100292.51
2022-08-25T10:11:08.672Z,100282.77
2022-08-25T10:12:21.959Z,100282.77
2022-08-25T10:13:39.634Z,100279.36
2022-08-25T10:14:44.438Z,100279.36
2022-08-25T10:15:50.247Z,100283.50
2022-08-25T10:17:14.081Z,100283.50
2022-08-25T10:18:29.846Z,100287.20
2022-08-25T10:19:33.869Z,100287.20
2022-08-25T10:20:38.359Z,100295.34
2022-08-25T10:21:47.186Z,100295.34
2022-08-25T10:22:53.014Z,100280.36
2022-08-25T10:23:57.243Z,100289.86
2022-08-25T10:25:04.731Z,100279.33
2022-08-25T10:26:17.084Z,100291.09
2022-08-25T10:27:40.018Z,100287.25
2022-08-25T10:28:53.137Z,100287.25
2022-08-25T10:30:04.214Z,100290.67
2022-08-25T10:31:20.138Z,100292.62
2022-08-25T10:32:36.639Z,100292.62
2022-08-25T10:34:00.179Z,100272.64
2022-08-25T10:35:08.265Z,100272.64
2022-08-25T10:36:20.562Z,100265.39
2022-08-25T10:37:40.162Z,100266.14
2022-08-25T10:38:48.510Z,100266.14
2022-08-25T10:39:58.250Z,100282.56
2022-08-25T10:41:17.521Z,100272.86
2022-08-25T10:42:51.427Z,100272.86
2022-08-25T10:44:25.612Z,100275.12
2022-08-25T10:45:32.572Z,100276.52
2022-08-25T10:46:42.444Z,100276.52
2022-08-25T10:47:53.201Z,100264.66
2022-08-25T10:49:02.734Z,100262.98
2022-08-25T10:50:12.372Z,100260.45
2022-08-25T10:51:40.518Z,100261.23
2022-08-25T10:52:59.591Z,100261.23
2022-08-25T10:54:09.899Z,100258.43
2022-08-25T10:55:25.873Z,100258.43
2022-08-25T10:56:48.026Z,100256.78
2022-08-25T10:58:08.775Z,100261.17
2022-08-25T10:59:38.203Z,100259.49
2022-08-25T11:00:46.543Z,100259.49
2022-08-25T11:02:13.667Z,100245.19
2022-08-25T11:03:43.293Z,100245.19
2022-08-25T11:05:11.781Z,100239.00
2022-08-25T11:07:53.504Z,100255.22
2022-08-25T11:09:00.067Z,100261.91
2022-08-25T11:10:26.820Z,100261.91
2022-08-25T11:11:44.980Z,100246.61
2022-08-25T11:13:01.118Z,100246.61
2022-08-25T11:14:11.655Z,100245.80
2022-08-25T11:15:21.590Z,100247.47
2022-08-25T11:16:37.619Z,100240.45
2022-08-25T11:18:14.784Z,100240.45
2022-08-25T11:19:24.770Z,100224.51
2022-08-25T11:20:35.368Z,100236.08
2022-08-25T11:21:51.114Z,100236.08
2022-08-25T11:23:07.188Z,100237.76
2022-08-25T11:24:36.619Z,100237.76
2022-08-25T11:25:47.263Z,100255.59
2022-08-25T11:26:54.339Z,100252.98
2022-08-25T11:28:13.298Z,100223.75
2022-08-25T11:29:20.400Z,100239.88
2022-08-25T11:30:25.951Z,100239.88
2022-08-25T11:31:31.516Z,100240.18
2022-08-25T11:32:37.835Z,100229.35
2022-08-25T11:33:43.362Z,100229.35
2022-08-25T11:34:47.772Z,100220.74
2022-08-25T11:35:57.943Z,100235.69
2022-08-25T11:37:07.221Z,100239.55
2022-08-25T11:38:30.920Z,100231.50
2022-08-25T11:39:57.289Z,100231.50
2022-08-25T11:41:24.038Z,100243.78
2022-08-25T11:42:39.930Z,100234.67
2022-08-25T11:44:05.482Z,100231.58
2022-08-25T11:45:45.761Z,100234.70
2022-08-25T11:47:01.721Z,99606.80
2022-08-25T11:48:37.302Z,100227.70
2022-08-25T11:49:46.999Z,100229.94
2022-08-25T11:51:09.617Z,100069.36
2022-08-25T11:52:36.106Z,100226.57
2022-08-25T11:53:42.516Z,100226.57
2022-08-25T11:54:47.237Z,100226.03
2022-08-25T11:55:54.529Z,100210.97
2022-08-25T11:57:04.462Z,100224.30
2022-08-25T11:58:28.021Z,100224.30
2022-08-25T11:59:54.774Z,100221.52
2022-08-25T12:01:05.694Z,100242.10
2022-08-25T12:02:14.503Z,100234.40
2022-08-25T12:03:38.695Z,100218.91
2022-08-25T12:04:45.810Z,100202.84
2022-08-25T12:05:55.893Z,100202.84
2022-08-25T12:07:12.416Z,100212.30
2022-08-25T12:08:24.457Z,100212.30
2022-08-25T12:09:33.696Z,100217.34
2022-08-25T12:11:10.935Z,100224.58
2022-08-25T12:12:31.510Z,100212.99
2022-08-25T12:13:49.625Z,100212.99
2022-08-25T12:14:56.245Z,100212.72
2022-08-25T12:16:02.997Z,100212.72
2022-08-25T12:17:21.156Z,100195.52
2022-08-25T12:18:38.536Z,100201.31
2022-08-25T12:19:50.412Z,100201.27
2022-08-25T12:20:59.108Z,100202.38
2022-08-25T12:22:07.738Z,100202.38
2022-08-25T12:23:15.888Z,100206.52
2022-08-25T12:24:37.997Z,100232.34
2022-08-25T12:25:46.688Z,100232.34
2022-08-25T12:27:01.505Z,100206.82
2022-08-25T12:28:16.033Z,100214.26
2022-08-25T12:29:44.359Z,100186.80
2022-08-25T12:30:54.613Z,100186.80
2022-08-25T12:32:04.575Z,100181.76
2022-08-25T12:33:23.664Z,100204.01
2022-08-25T12:34:44.212Z,100194.83
2022-08-25T12:35:53.924Z,100188.45
2022-08-25T12:37:06.437Z,100204.62
2022-08-25T12:38:20.046Z,100207.92
2022-08-25T12:42:30.694Z,100215.39
2022-08-25T12:43:43.928Z,100193.48
2022-08-25T12:45:06.260Z,100193.48
2022-08-25T12:46:23.909Z,100202.09
2022-08-25T12:47:30.883Z,100202.09
2022-08-25T12:48:37.882Z,100192.13
2022-08-25T12:49:46.770Z,100209.87
2022-08-25T12:51:09.309Z,100209.87
2022-08-25T12:52:27.838Z,100202.72
2022-08-25T12:53:42.146Z,100210.19
2022-08-25T12:54:58.393Z,100210.19
2022-08-25T12:56:05.229Z,100185.25
2022-08-25T12:57:29.540Z,100189.66
2022-08-25T12:59:00.806Z,100189.66
2022-08-25T12:59:59.656Z,100180.75
2022-08-25T13:01:35.445Z,100180.75
2022-08-25T13:02:52.170Z,100199.13
2022-08-25T13:04:09.406Z,100175.20
2022-08-25T13:05:28.096Z,100187.44
2022-08-25T13:07:01.095Z,100187.44
2022-08-25T13:08:26.924Z,100180.17
2022-08-25T13:10:04.261Z,100204.67
2022-08-25T13:11:11.374Z,100194.67
2022-08-25T13:12:27.994Z,100187.20
2022-08-25T13:13:54.297Z,100187.20
2022-08-25T13:14:58.963Z,100209.43
2022-08-25T13:16:06.910Z,100209.43
2022-08-25T13:17:12.112Z,100200.56
2022-08-25T13:18:19.739Z,100186.95
2022-08-25T13:19:25.250Z,100186.95
2022-08-25T13:20:29.737Z,100178.64
2022-08-25T13:21:39.771Z,100228.06
2022-08-25T13:22:57.247Z,100193.64
2022-08-25T13:24:05.334Z,100195.83
2022-08-25T13:25:06.582Z,100206.93
2022-08-25T13:26:15.237Z,100183.67
2022-08-25T13:27:25.219Z,100183.67
2022-08-25T13:28:37.693Z,100205.35
2022-08-25T13:29:58.413Z,100205.35
2022-08-25T13:31:23.190Z,100183.16
2022-08-25T13:32:37.051Z,100183.16
2022-08-25T13:34:01.972Z,100212.55
2022-08-25T13:35:19.879Z,100212.55
2022-08-25T13:36:27.060Z,100188.46
2022-08-25T13:37:32.325Z,100192.09
2022-08-25T13:38:36.435Z,100182.61
2022-08-25T13:39:56.207Z,100167.67
2022-08-25T13:40:50.122Z,100184.56
2022-08-25T13:41:56.256Z,100178.19
2022-08-25T13:43:03.314Z,100182.36
2022-08-25T13:44:07.485Z,100182.36
2022-08-25T13:45:16.129Z,100172.64
2022-08-25T13:46:25.006Z,100182.13
2022-08-25T13:47:43.779Z,100182.13